Westlake, OR (97493)

7:53 AM PDT on October 23, 2014 (GMT -0700)
Florence Public Works | Change Station
CLOSE
Current Station
Personal Weather Station
Location: Florence, OR
Elevation: 69 ft
Nearby Weather Stations
Active Advisory: Special Statement Active Notice: Record Report

Elev 69 ft 43.98 °N, 124.10 °W | Updated 16 seconds ago

Mostly Cloudy
Mostly Cloudy
55.4 °F
Feels Like 55.4 °F
N
0.0
Wind Variable Wind from SW
Gusts 0.0 mph

Today
High -- | Low -- °F
--% Chance of Precip.
Yesterday
High -- | Low -- °F
Precip. -- in
7:40 AM 6:19 PM
Waning Crescent, 0% visible
Pressure 29.87 in
Visibility 10.0 miles
Clouds Overcast 6500 ft
Dew Point 55 °F
Humidity 99%
Rainfall 0.39 in
Snow Depth Not available.
UV 0 out of 12
Pollen .30 out of 12
Air Quality Not available.
Flu Activity Sporadic
METAR KOTH 231435Z 16006KT 10SM OVC065 13/13 A2987 RMK AO1 P0001

More Conditions Fewer Conditions

Pressure 29.87 in
Visibility 10.0 miles
Clouds Overcast 6500 ft
Dew Point 55 °F
Humidity 99%
Rainfall 0.39 in
Snow Depth Not available.
UV 0 out of 12
Pollen .30 out of 12
Air Quality Not available.
Flu Activity Sporadic
METAR KOTH 231435Z 16006KT 10SM OVC065 13/13 A2987 RMK AO1 P0001

More Conditions Fewer Conditions

10-Day Weather Forecast

Almanac

Astronomy

Oct. 23, 2014 Rise Set
Actual Time 7:40 AM PDT 6:19 PM PDT
Civil Twilight 7:11 AM PDT 6:48 PM PDT
Nautical Twilight 6:37 AM PDT 7:22 PM PDT
Astronomical Twilight 6:04 AM PDT 7:55 PM PDT
Moon 7:25 AM PDT 6:24 PM PDT
Length of Visible Light 11h 37m
Length of Day
10h 38m
Tomorrow will be 2m 49s shorter.
Waning Crescent, 0% of the Moon is Illuminated
Today
Waning Crescent
Oct 23
New
Oct 30
First Quarter
Nov 6
Full
Nov 14
Last Quarter

Today's Extremes

State Highs State Lows

Community

WunderPhotos

Upload Photos

1,764,272 photos uploaded!

WunderBlogs® & News

Nearby

Snow Depth

Station Depth Elevation
Holland Meadows 0 in 4900 ft
Jump Off Joe 0 in 3500 ft
Roaring River 0 in 4900 ft
Salt Creek Falls 0 in 4000 ft
Cascade Summit 0 in 4880 ft

Earthquake Activity

City Distance Mag. Time & Date
No recent earthquake activity has been reported nearby.
Minimum magnitude displayed is 2.5.

Coastal Water Temperatures

Place Temperature
Port Orford, OR 59.0 °F
Charleston, OR 57.9 °F
South Beach, OR 60.1 °F

Nearby Weather Stations